Farlen, Indiana
Current Conditions -  °F | °C
As of 9:35 AM on Saturday 22 Nov 2014 (Local Time) from KDCY Reporting Station
Overcast Overcast  
Wind Chill: 53°   Ceiling: 9500
Heat Index: 53°   Visibility: 10mi
Dew Point: 42°   Wind: 16mph
Humidity: 68%   Direction: 190°S
Pressure: 30.19"   Gusts: NA
Location:  38.8205°N, 86.9659°W
Report Text: KDCY 221535Z AUTO 19014KT 10SM OVC095 12/06 A3019 RMK AO2 T01150058
Loading
Personal Weather Stations






























Interactive Weather Map New forecast layout! Learn more

10-Day Weather Forecast

Advertisements
Track Severe Weather on mobile